sensor_id;sensor_type;location;lat;lon;timestamp;temperature;humidity
10062;DHT22;5070;52.382;5.270;2023-02-18T00:01:07;18.30;86.20
10062;DHT22;5070;52.382;5.270;2023-02-18T00:03:35;18.30;86.10
10062;DHT22;5070;52.382;5.270;2023-02-18T00:06:10;18.30;86.10
10062;DHT22;5070;52.382;5.270;2023-02-18T00:08:40;18.30;86.20
10062;DHT22;5070;52.382;5.270;2023-02-18T00:11:12;18.30;86.00
10062;DHT22;5070;52.382;5.270;2023-02-18T00:13:40;18.30;86.00
10062;DHT22;5070;52.382;5.270;2023-02-18T00:16:10;18.30;86.00
10062;DHT22;5070;52.382;5.270;2023-02-18T00:18:39;18.20;85.90
10062;DHT22;5070;52.382;5.270;2023-02-18T00:21:07;18.30;86.00
10062;DHT22;5070;52.382;5.270;2023-02-18T00:23:36;18.20;85.80
10062;DHT22;5070;52.382;5.270;2023-02-18T00:26:16;18.20;85.80
10062;DHT22;5070;52.382;5.270;2023-02-18T00:28:45;18.20;85.90
10062;DHT22;5070;52.382;5.270;2023-02-18T00:31:16;18.20;85.60
10062;DHT22;5070;52.382;5.270;2023-02-18T00:33:44;18.20;85.80
10062;DHT22;5070;52.382;5.270;2023-02-18T00:36:15;18.20;85.80
10062;DHT22;5070;52.382;5.270;2023-02-18T00:38:44;18.20;85.80
10062;DHT22;5070;52.382;5.270;2023-02-18T00:41:12;18.20;85.80
10062;DHT22;5070;52.382;5.270;2023-02-18T00:43:42;18.20;86.20
10062;DHT22;5070;52.382;5.270;2023-02-18T00:46:10;18.20;86.30
10062;DHT22;5070;52.382;5.270;2023-02-18T00:48:38;18.20;86.20
10062;DHT22;5070;52.382;5.270;2023-02-18T00:51:09;18.20;86.00
10062;DHT22;5070;52.382;5.270;2023-02-18T00:53:38;18.20;86.00
10062;DHT22;5070;52.382;5.270;2023-02-18T00:56:06;18.20;85.90
10062;DHT22;5070;52.382;5.270;2023-02-18T00:58:35;18.20;85.90
10062;DHT22;5070;52.382;5.270;2023-02-18T01:01:06;18.20;85.90
10062;DHT22;5070;52.382;5.270;2023-02-18T01:03:35;18.20;85.90
10062;DHT22;5070;52.382;5.270;2023-02-18T01:06:04;18.20;85.90
10062;DHT22;5070;52.382;5.270;2023-02-18T01:08:33;18.20;85.90
10062;DHT22;5070;52.382;5.270;2023-02-18T01:11:03;18.10;85.80
10062;DHT22;5070;52.382;5.270;2023-02-18T01:13:31;18.10;86.00
10062;DHT22;5070;52.382;5.270;2023-02-18T01:15:59;18.10;85.90
10062;DHT22;5070;52.382;5.270;2023-02-18T01:18:30;18.10;85.90
10062;DHT22;5070;52.382;5.270;2023-02-18T01:20:58;18.10;85.80
10062;DHT22;5070;52.382;5.270;2023-02-18T01:23:27;18.10;85.80
10062;DHT22;5070;52.382;5.270;2023-02-18T01:25:56;18.10;85.80
10062;DHT22;5070;52.382;5.270;2023-02-18T01:28:24;18.10;85.70
10062;DHT22;5070;52.382;5.270;2023-02-18T01:30:53;18.10;85.80
10062;DHT22;5070;52.382;5.270;2023-02-18T01:33:21;18.10;86.20
10062;DHT22;5070;52.382;5.270;2023-02-18T01:35:52;18.10;85.90
10062;DHT22;5070;52.382;5.270;2023-02-18T01:38:22;18.10;85.70
10062;DHT22;5070;52.382;5.270;2023-02-18T01:40:51;18.10;85.70
10062;DHT22;5070;52.382;5.270;2023-02-18T01:43:20;18.10;85.70
10062;DHT22;5070;52.382;5.270;2023-02-18T01:48:38;18.00;85.70
10062;DHT22;5070;52.382;5.270;2023-02-18T01:51:11;18.00;85.70
10062;DHT22;5070;52.382;5.270;2023-02-18T01:53:46;18.00;85.70
10062;DHT22;5070;52.382;5.270;2023-02-18T01:56:22;18.00;85.70
10062;DHT22;5070;52.382;5.270;2023-02-18T01:58:54;18.00;85.70
10062;DHT22;5070;52.382;5.270;2023-02-18T02:01:23;18.00;85.70
10062;DHT22;5070;52.382;5.270;2023-02-18T02:03:52;18.00;85.70
10062;DHT22;5070;52.382;5.270;2023-02-18T02:06:22;18.00;85.60
10062;DHT22;5070;52.382;5.270;2023-02-18T02:08:54;18.00;85.70
10062;DHT22;5070;52.382;5.270;2023-02-18T02:11:43;18.00;85.60
10062;DHT22;5070;52.382;5.270;2023-02-18T02:14:21;18.00;85.60
10062;DHT22;5070;52.382;5.270;2023-02-18T02:16:59;18.00;85.50
10062;DHT22;5070;52.382;5.270;2023-02-18T02:20:09;17.90;85.50
10062;DHT22;5070;52.382;5.270;2023-02-18T02:26:33;17.90;85.30
10062;DHT22;5070;52.382;5.270;2023-02-18T02:32:54;17.90;85.30
10062;DHT22;5070;52.382;5.270;2023-02-18T02:35:28;17.90;85.30
10062;DHT22;5070;52.382;5.270;2023-02-18T02:38:01;17.90;85.30
10062;DHT22;5070;52.382;5.270;2023-02-18T02:40:35;17.90;85.30
10062;DHT22;5070;52.382;5.270;2023-02-18T02:43:12;17.90;85.20
10062;DHT22;5070;52.382;5.270;2023-02-18T02:45:51;17.90;85.90
10062;DHT22;5070;52.382;5.270;2023-02-18T02:48:27;17.90;85.20
10062;DHT22;5070;52.382;5.270;2023-02-18T02:51:06;17.80;85.10
10062;DHT22;5070;52.382;5.270;2023-02-18T02:53:39;17.80;85.10
10062;DHT22;5070;52.382;5.270;2023-02-18T02:56:12;17.80;85.10
10062;DHT22;5070;52.382;5.270;2023-02-18T02:58:42;17.80;85.00
10062;DHT22;5070;52.382;5.270;2023-02-18T03:01:25;17.80;85.80
10062;DHT22;5070;52.382;5.270;2023-02-18T03:04:08;17.80;85.00
10062;DHT22;5070;52.382;5.270;2023-02-18T03:07:05;17.80;84.90
10062;DHT22;5070;52.382;5.270;2023-02-18T03:09:43;17.80;84.90
10062;DHT22;5070;52.382;5.270;2023-02-18T03:12:20;17.80;84.90
10062;DHT22;5070;52.382;5.270;2023-02-18T03:14:57;17.80;84.90
10062;DHT22;5070;52.382;5.270;2023-02-18T03:17:33;17.80;84.90
10062;DHT22;5070;52.382;5.270;2023-02-18T03:20:07;17.80;84.90
10062;DHT22;5070;52.382;5.270;2023-02-18T03:22:42;17.80;84.80
10062;DHT22;5070;52.382;5.270;2023-02-18T03:25:11;17.80;84.80
10062;DHT22;5070;52.382;5.270;2023-02-18T03:27:42;17.80;84.80
10062;DHT22;5070;52.382;5.270;2023-02-18T03:30:15;17.80;84.80
10062;DHT22;5070;52.382;5.270;2023-02-18T03:32:46;17.80;84.80
10062;DHT22;5070;52.382;5.270;2023-02-18T03:35:17;17.80;84.80
10062;DHT22;5070;52.382;5.270;2023-02-18T03:37:51;17.80;84.80
10062;DHT22;5070;52.382;5.270;2023-02-18T03:40:21;17.70;84.70
10062;DHT22;5070;52.382;5.270;2023-02-18T03:42:49;17.70;84.70
10062;DHT22;5070;52.382;5.270;2023-02-18T03:45:17;17.70;84.70
10062;DHT22;5070;52.382;5.270;2023-02-18T03:47:45;17.80;84.70
10062;DHT22;5070;52.382;5.270;2023-02-18T03:50:15;17.70;84.70
10062;DHT22;5070;52.382;5.270;2023-02-18T03:52:43;17.70;84.60
10062;DHT22;5070;52.382;5.270;2023-02-18T03:55:15;17.70;84.60
10062;DHT22;5070;52.382;5.270;2023-02-18T03:57:43;17.70;84.60
10062;DHT22;5070;52.382;5.270;2023-02-18T04:00:11;17.70;84.60
10062;DHT22;5070;52.382;5.270;2023-02-18T04:02:40;17.70;85.30
10062;DHT22;5070;52.382;5.270;2023-02-18T04:05:08;17.70;84.60
10062;DHT22;5070;52.382;5.270;2023-02-18T04:07:36;17.70;84.50
10062;DHT22;5070;52.382;5.270;2023-02-18T04:10:05;17.70;84.50
10062;DHT22;5070;52.382;5.270;2023-02-18T04:12:35;17.70;84.50
10062;DHT22;5070;52.382;5.270;2023-02-18T04:15:03;17.70;84.50
10062;DHT22;5070;52.382;5.270;2023-02-18T04:17:32;17.60;84.40
10062;DHT22;5070;52.382;5.270;2023-02-18T04:20:00;17.60;84.40
10062;DHT22;5070;52.382;5.270;2023-02-18T04:22:30;17.60;84.40
10062;DHT22;5070;52.382;5.270;2023-02-18T04:24:58;17.60;84.40
10062;DHT22;5070;52.382;5.270;2023-02-18T04:27:27;17.60;84.40
10062;DHT22;5070;52.382;5.270;2023-02-18T04:29:56;17.60;84.40
10062;DHT22;5070;52.382;5.270;2023-02-18T04:32:24;17.60;84.40
10062;DHT22;5070;52.382;5.270;2023-02-18T04:34:52;17.60;85.10
10062;DHT22;5070;52.382;5.270;2023-02-18T04:37:20;17.60;84.20
10062;DHT22;5070;52.382;5.270;2023-02-18T04:39:48;17.60;84.30
10062;DHT22;5070;52.382;5.270;2023-02-18T04:42:17;17.60;84.30
10062;DHT22;5070;52.382;5.270;2023-02-18T04:44:45;17.60;84.30
10062;DHT22;5070;52.382;5.270;2023-02-18T04:47:15;17.60;84.20
10062;DHT22;5070;52.382;5.270;2023-02-18T04:49:42;17.60;84.20
10062;DHT22;5070;52.382;5.270;2023-02-18T04:52:10;17.60;84.20
10062;DHT22;5070;52.382;5.270;2023-02-18T04:54:39;17.60;84.20
10062;DHT22;5070;52.382;5.270;2023-02-18T04:57:08;17.60;84.20
10062;DHT22;5070;52.382;5.270;2023-02-18T04:59:37;17.50;84.10
10062;DHT22;5070;52.382;5.270;2023-02-18T05:02:08;17.60;84.20
10062;DHT22;5070;52.382;5.270;2023-02-18T05:04:37;17.60;84.20
10062;DHT22;5070;52.382;5.270;2023-02-18T05:07:05;17.50;84.10
10062;DHT22;5070;52.382;5.270;2023-02-18T05:09:33;17.60;84.20
10062;DHT22;5070;52.382;5.270;2023-02-18T05:12:02;17.50;84.10
10062;DHT22;5070;52.382;5.270;2023-02-18T05:14:30;17.50;84.10
10062;DHT22;5070;52.382;5.270;2023-02-18T05:16:57;17.50;84.10
10062;DHT22;5070;52.382;5.270;2023-02-18T05:19:25;17.50;84.10
10062;DHT22;5070;52.382;5.270;2023-02-18T05:21:55;17.50;84.00
10062;DHT22;5070;52.382;5.270;2023-02-18T05:24:23;17.50;84.10
10062;DHT22;5070;52.382;5.270;2023-02-18T05:26:51;17.50;84.10
10062;DHT22;5070;52.382;5.270;2023-02-18T05:29:19;17.50;84.10
10062;DHT22;5070;52.382;5.270;2023-02-18T05:31:47;17.50;84.00
10062;DHT22;5070;52.382;5.270;2023-02-18T05:34:15;17.50;84.00
10062;DHT22;5070;52.382;5.270;2023-02-18T05:36:43;17.50;84.10
10062;DHT22;5070;52.382;5.270;2023-02-18T05:39:12;17.50;84.10
10062;DHT22;5070;52.382;5.270;2023-02-18T05:41:40;17.50;84.00
10062;DHT22;5070;52.382;5.270;2023-02-18T05:44:08;17.50;84.10
10062;DHT22;5070;52.382;5.270;2023-02-18T05:46:54;17.50;84.10
10062;DHT22;5070;52.382;5.270;2023-02-18T05:49:22;17.50;84.10
10062;DHT22;5070;52.382;5.270;2023-02-18T05:51:50;17.50;84.10
10062;DHT22;5070;52.382;5.270;2023-02-18T05:54:21;17.50;84.00
10062;DHT22;5070;52.382;5.270;2023-02-18T05:56:49;17.50;84.00
10062;DHT22;5070;52.382;5.270;2023-02-18T05:59:18;17.50;84.00
10062;DHT22;5070;52.382;5.270;2023-02-18T06:01:47;17.40;83.90
10062;DHT22;5070;52.382;5.270;2023-02-18T06:04:15;17.40;83.90
10062;DHT22;5070;52.382;5.270;2023-02-18T06:06:43;17.50;84.00
10062;DHT22;5070;52.382;5.270;2023-02-18T06:09:11;17.50;84.00
10062;DHT22;5070;52.382;5.270;2023-02-18T06:11:40;17.40;83.90
10062;DHT22;5070;52.382;5.270;2023-02-18T06:14:08;17.50;83.90
10062;DHT22;5070;52.382;5.270;2023-02-18T06:16:36;17.50;83.90
10062;DHT22;5070;52.382;5.270;2023-02-18T06:19:04;17.40;84.00
10062;DHT22;5070;52.382;5.270;2023-02-18T06:21:32;17.50;84.30
10062;DHT22;5070;52.382;5.270;2023-02-18T06:24:00;17.40;85.00
10062;DHT22;5070;52.382;5.270;2023-02-18T06:26:28;17.40;84.30
10062;DHT22;5070;52.382;5.270;2023-02-18T06:28:58;17.40;84.60
10062;DHT22;5070;52.382;5.270;2023-02-18T06:31:26;17.40;84.40
10062;DHT22;5070;52.382;5.270;2023-02-18T06:33:54;17.40;84.30
10062;DHT22;5070;52.382;5.270;2023-02-18T06:36:22;17.40;84.40
10062;DHT22;5070;52.382;5.270;2023-02-18T06:38:50;17.40;84.30
10062;DHT22;5070;52.382;5.270;2023-02-18T06:41:19;17.50;84.30
10062;DHT22;5070;52.382;5.270;2023-02-18T06:43:47;17.40;84.20
10062;DHT22;5070;52.382;5.270;2023-02-18T06:46:17;17.40;84.20
10062;DHT22;5070;52.382;5.270;2023-02-18T06:48:45;17.40;84.20
10062;DHT22;5070;52.382;5.270;2023-02-18T06:51:13;17.40;84.10
10062;DHT22;5070;52.382;5.270;2023-02-18T06:53:42;17.40;84.10
10062;DHT22;5070;52.382;5.270;2023-02-18T06:56:10;17.40;84.10
10062;DHT22;5070;52.382;5.270;2023-02-18T06:58:38;17.40;84.10
10062;DHT22;5070;52.382;5.270;2023-02-18T07:01:06;17.40;84.10
10062;DHT22;5070;52.382;5.270;2023-02-18T07:03:35;17.40;84.00
10062;DHT22;5070;52.382;5.270;2023-02-18T07:06:04;17.40;84.00
10062;DHT22;5070;52.382;5.270;2023-02-18T07:08:33;17.40;84.10
10062;DHT22;5070;52.382;5.270;2023-02-18T07:11:01;17.40;84.10
10062;DHT22;5070;52.382;5.270;2023-02-18T07:13:30;17.40;84.10
10062;DHT22;5070;52.382;5.270;2023-02-18T07:15:57;17.40;84.10
10062;DHT22;5070;52.382;5.270;2023-02-18T07:18:25;17.40;84.30
10062;DHT22;5070;52.382;5.270;2023-02-18T07:20:55;17.40;84.30
10062;DHT22;5070;52.382;5.270;2023-02-18T07:23:23;17.40;84.30
10062;DHT22;5070;52.382;5.270;2023-02-18T07:25:51;17.40;84.40
10062;DHT22;5070;52.382;5.270;2023-02-18T07:28:19;17.40;84.50
10062;DHT22;5070;52.382;5.270;2023-02-18T07:30:46;17.50;84.60
10062;DHT22;5070;52.382;5.270;2023-02-18T07:33:14;17.50;84.50
10062;DHT22;5070;52.382;5.270;2023-02-18T07:35:42;17.50;84.60
10062;DHT22;5070;52.382;5.270;2023-02-18T07:38:12;17.50;84.60
10062;DHT22;5070;52.382;5.270;2023-02-18T07:40:44;17.60;84.80
10062;DHT22;5070;52.382;5.270;2023-02-18T07:43:12;17.60;84.80
10062;DHT22;5070;52.382;5.270;2023-02-18T07:45:40;17.60;84.80
10062;DHT22;5070;52.382;5.270;2023-02-18T07:48:08;17.60;85.10
10062;DHT22;5070;52.382;5.270;2023-02-18T07:50:39;17.60;85.10
10062;DHT22;5070;52.382;5.270;2023-02-18T07:53:07;17.60;84.90
10062;DHT22;5070;52.382;5.270;2023-02-18T07:55:37;17.60;85.10
10062;DHT22;5070;52.382;5.270;2023-02-18T07:58:18;17.70;85.10
10062;DHT22;5070;52.382;5.270;2023-02-18T08:00:47;17.70;85.20
10062;DHT22;5070;52.382;5.270;2023-02-18T08:03:16;17.70;85.20
10062;DHT22;5070;52.382;5.270;2023-02-18T08:05:46;17.70;85.30
10062;DHT22;5070;52.382;5.270;2023-02-18T08:08:15;17.70;85.30
10062;DHT22;5070;52.382;5.270;2023-02-18T08:10:48;17.70;85.50
10062;DHT22;5070;52.382;5.270;2023-02-18T08:13:16;17.70;85.70
10062;DHT22;5070;52.382;5.270;2023-02-18T08:15:44;17.70;85.40
10062;DHT22;5070;52.382;5.270;2023-02-18T08:18:15;17.80;86.00
10062;DHT22;5070;52.382;5.270;2023-02-18T08:20:44;17.80;85.20
10062;DHT22;5070;52.382;5.270;2023-02-18T08:23:13;17.80;84.80
10062;DHT22;5070;52.382;5.270;2023-02-18T08:25:44;17.80;85.60
10062;DHT22;5070;52.382;5.270;2023-02-18T08:28:17;17.80;85.90
10062;DHT22;5070;52.382;5.270;2023-02-18T08:30:46;17.80;86.30
10062;DHT22;5070;52.382;5.270;2023-02-18T08:33:14;17.80;86.50
10062;DHT22;5070;52.382;5.270;2023-02-18T08:35:43;17.90;86.50
10062;DHT22;5070;52.382;5.270;2023-02-18T08:38:11;17.90;85.70
10062;DHT22;5070;52.382;5.270;2023-02-18T08:40:41;17.90;86.70
10062;DHT22;5070;52.382;5.270;2023-02-18T08:43:09;17.90;86.10
10062;DHT22;5070;52.382;5.270;2023-02-18T08:45:40;17.90;85.60
10062;DHT22;5070;52.382;5.270;2023-02-18T08:48:09;17.90;85.50
10062;DHT22;5070;52.382;5.270;2023-02-18T08:50:45;18.00;84.70
10062;DHT22;5070;52.382;5.270;2023-02-18T08:53:13;18.00;85.70
10062;DHT22;5070;52.382;5.270;2023-02-18T08:55:41;18.00;85.80
10062;DHT22;5070;52.382;5.270;2023-02-18T08:58:10;18.00;85.70
10062;DHT22;5070;52.382;5.270;2023-02-18T09:00:41;18.00;85.70
10062;DHT22;5070;52.382;5.270;2023-02-18T09:03:11;18.00;85.50
10062;DHT22;5070;52.382;5.270;2023-02-18T09:05:42;18.00;85.60
10062;DHT22;5070;52.382;5.270;2023-02-18T09:08:10;18.00;85.70
10062;DHT22;5070;52.382;5.270;2023-02-18T09:10:38;18.00;85.70
10062;DHT22;5070;52.382;5.270;2023-02-18T09:13:06;18.00;85.50
10062;DHT22;5070;52.382;5.270;2023-02-18T09:15:34;18.00;85.30
10062;DHT22;5070;52.382;5.270;2023-02-18T09:18:07;18.00;85.40
10062;DHT22;5070;52.382;5.270;2023-02-18T09:20:41;18.00;86.10
10062;DHT22;5070;52.382;5.270;2023-02-18T09:23:09;18.00;85.70
10062;DHT22;5070;52.382;5.270;2023-02-18T09:25:38;18.00;85.10
10062;DHT22;5070;52.382;5.270;2023-02-18T09:28:06;18.00;85.70
10062;DHT22;5070;52.382;5.270;2023-02-18T09:30:34;18.00;85.70
10062;DHT22;5070;52.382;5.270;2023-02-18T09:33:02;18.00;85.80
10062;DHT22;5070;52.382;5.270;2023-02-18T09:35:32;18.00;85.30
10062;DHT22;5070;52.382;5.270;2023-02-18T09:38:00;18.00;85.40
10062;DHT22;5070;52.382;5.270;2023-02-18T09:40:32;18.10;86.10
10062;DHT22;5070;52.382;5.270;2023-02-18T09:43:02;18.00;86.00
10062;DHT22;5070;52.382;5.270;2023-02-18T09:45:30;18.00;85.80
10062;DHT22;5070;52.382;5.270;2023-02-18T09:48:00;18.00;85.70
10062;DHT22;5070;52.382;5.270;2023-02-18T09:50:32;18.10;85.40
10062;DHT22;5070;52.382;5.270;2023-02-18T09:53:02;18.10;85.70
10062;DHT22;5070;52.382;5.270;2023-02-18T09:55:35;18.10;86.10
10062;DHT22;5070;52.382;5.270;2023-02-18T09:58:07;18.10;86.50
10062;DHT22;5070;52.382;5.270;2023-02-18T10:00:41;18.10;86.10
10062;DHT22;5070;52.382;5.270;2023-02-18T10:03:15;18.20;86.70
10062;DHT22;5070;52.382;5.270;2023-02-18T10:05:55;18.20;86.90
10062;DHT22;5070;52.382;5.270;2023-02-18T10:08:26;18.20;86.90
10062;DHT22;5070;52.382;5.270;2023-02-18T10:10:55;18.20;87.40
10062;DHT22;5070;52.382;5.270;2023-02-18T10:13:25;18.20;86.20
10062;DHT22;5070;52.382;5.270;2023-02-18T10:15:55;18.30;88.60
10062;DHT22;5070;52.382;5.270;2023-02-18T10:18:28;18.30;86.30
10062;DHT22;5070;52.382;5.270;2023-02-18T10:21:03;18.30;87.30
10062;DHT22;5070;52.382;5.270;2023-02-18T10:23:34;18.40;86.00
10062;DHT22;5070;52.382;5.270;2023-02-18T10:26:06;18.30;88.00
10062;DHT22;5070;52.382;5.270;2023-02-18T10:28:37;18.40;86.50
10062;DHT22;5070;52.382;5.270;2023-02-18T10:31:07;18.40;86.30
10062;DHT22;5070;52.382;5.270;2023-02-18T10:33:42;18.50;87.60
10062;DHT22;5070;52.382;5.270;2023-02-18T10:36:24;18.50;87.00
10062;DHT22;5070;52.382;5.270;2023-02-18T10:41:53;18.40;86.70
10062;DHT22;5070;52.382;5.270;2023-02-18T10:44:30;18.40;87.00
10062;DHT22;5070;52.382;5.270;2023-02-18T10:47:10;18.30;87.40
10062;DHT22;5070;52.382;5.270;2023-02-18T10:49:54;18.30;87.70
10062;DHT22;5070;52.382;5.270;2023-02-18T10:52:26;18.40;86.30
10062;DHT22;5070;52.382;5.270;2023-02-18T10:55:01;18.40;86.80
10062;DHT22;5070;52.382;5.270;2023-02-18T10:57:30;18.40;87.50
10062;DHT22;5070;52.382;5.270;2023-02-18T11:00:02;18.40;86.30
10062;DHT22;5070;52.382;5.270;2023-02-18T11:02:38;18.40;86.20
10062;DHT22;5070;52.382;5.270;2023-02-18T11:05:18;18.40;85.50
10062;DHT22;5070;52.382;5.270;2023-02-18T11:07:51;18.40;87.00
10062;DHT22;5070;52.382;5.270;2023-02-18T11:10:24;18.40;87.90
10062;DHT22;5070;52.382;5.270;2023-02-18T11:12:56;18.40;88.60
10062;DHT22;5070;52.382;5.270;2023-02-18T11:15:25;18.40;86.90
10062;DHT22;5070;52.382;5.270;2023-02-18T11:17:55;18.40;87.80
10062;DHT22;5070;52.382;5.270;2023-02-18T11:20:30;18.40;87.90
10062;DHT22;5070;52.382;5.270;2023-02-18T11:23:15;18.40;87.40
10062;DHT22;5070;52.382;5.270;2023-02-18T11:25:54;18.30;86.90
10062;DHT22;5070;52.382;5.270;2023-02-18T11:28:39;18.30;86.90
10062;DHT22;5070;52.382;5.270;2023-02-18T11:31:09;18.30;87.30
10062;DHT22;5070;52.382;5.270;2023-02-18T11:33:40;18.40;87.80
10062;DHT22;5070;52.382;5.270;2023-02-18T11:36:22;18.40;87.90
10062;DHT22;5070;52.382;5.270;2023-02-18T11:38:54;18.30;87.40
10062;DHT22;5070;52.382;5.270;2023-02-18T11:41:31;18.30;87.60
10062;DHT22;5070;52.382;5.270;2023-02-18T11:44:02;18.30;87.40
10062;DHT22;5070;52.382;5.270;2023-02-18T11:46:31;18.30;87.20
10062;DHT22;5070;52.382;5.270;2023-02-18T11:49:21;18.30;86.60
10062;DHT22;5070;52.382;5.270;2023-02-18T11:51:49;18.30;87.80
10062;DHT22;5070;52.382;5.270;2023-02-18T11:54:25;18.30;87.30
10062;DHT22;5070;52.382;5.270;2023-02-18T11:56:57;18.30;87.00
10062;DHT22;5070;52.382;5.270;2023-02-18T11:59:28;18.30;86.70
10062;DHT22;5070;52.382;5.270;2023-02-18T12:02:11;18.30;86.70
10062;DHT22;5070;52.382;5.270;2023-02-18T12:04:50;18.30;86.80
10062;DHT22;5070;52.382;5.270;2023-02-18T12:07:22;18.30;87.30
10062;DHT22;5070;52.382;5.270;2023-02-18T12:09:55;18.30;87.60
10062;DHT22;5070;52.382;5.270;2023-02-18T12:12:27;18.30;87.60
10062;DHT22;5070;52.382;5.270;2023-02-18T12:14:58;18.30;87.40
10062;DHT22;5070;52.382;5.270;2023-02-18T12:17:45;18.30;87.00
10062;DHT22;5070;52.382;5.270;2023-02-18T12:20:41;18.30;87.00
10062;DHT22;5070;52.382;5.270;2023-02-18T12:23:18;18.30;87.20
10062;DHT22;5070;52.382;5.270;2023-02-18T12:25:56;18.30;88.10
10062;DHT22;5070;52.382;5.270;2023-02-18T12:28:39;18.30;87.10
10062;DHT22;5070;52.382;5.270;2023-02-18T12:31:21;18.30;87.30
10062;DHT22;5070;52.382;5.270;2023-02-18T12:34:05;18.40;87.80
10062;DHT22;5070;52.382;5.270;2023-02-18T12:36:49;18.40;87.80
10062;DHT22;5070;52.382;5.270;2023-02-18T12:39:30;18.30;86.50
10062;DHT22;5070;52.382;5.270;2023-02-18T12:42:11;18.30;86.50
10062;DHT22;5070;52.382;5.270;2023-02-18T12:45:02;18.30;85.40
10062;DHT22;5070;52.382;5.270;2023-02-18T12:47:50;18.30;84.20
10062;DHT22;5070;52.382;5.270;2023-02-18T12:53:38;18.30;86.00
10062;DHT22;5070;52.382;5.270;2023-02-18T12:59:08;18.30;86.20
10062;DHT22;5070;52.382;5.270;2023-02-18T13:01:47;18.30;85.20
10062;DHT22;5070;52.382;5.270;2023-02-18T13:04:35;18.30;84.50
10062;DHT22;5070;52.382;5.270;2023-02-18T13:10:43;18.30;84.60
10062;DHT22;5070;52.382;5.270;2023-02-18T13:13:16;18.30;84.70
10062;DHT22;5070;52.382;5.270;2023-02-18T13:15:49;18.30;84.20
10062;DHT22;5070;52.382;5.270;2023-02-18T13:18:30;18.30;84.10
10062;DHT22;5070;52.382;5.270;2023-02-18T13:21:03;18.30;84.20
10062;DHT22;5070;52.382;5.270;2023-02-18T13:23:34;18.30;84.50
10062;DHT22;5070;52.382;5.270;2023-02-18T13:26:06;18.30;84.40
10062;DHT22;5070;52.382;5.270;2023-02-18T13:28:41;18.30;85.10
10062;DHT22;5070;52.382;5.270;2023-02-18T13:31:30;18.30;85.50
10062;DHT22;5070;52.382;5.270;2023-02-18T13:34:03;18.30;84.90
10062;DHT22;5070;52.382;5.270;2023-02-18T13:36:49;18.30;84.20
10062;DHT22;5070;52.382;5.270;2023-02-18T13:39:21;18.30;84.20
10062;DHT22;5070;52.382;5.270;2023-02-18T13:41:51;18.30;85.50
10062;DHT22;5070;52.382;5.270;2023-02-18T13:47:48;18.30;85.20
10062;DHT22;5070;52.382;5.270;2023-02-18T13:53:23;18.30;84.90
10062;DHT22;5070;52.382;5.270;2023-02-18T13:55:57;18.30;85.50
10062;DHT22;5070;52.382;5.270;2023-02-18T13:58:35;18.30;86.30
10062;DHT22;5070;52.382;5.270;2023-02-18T14:01:05;18.30;85.90
10062;DHT22;5070;52.382;5.270;2023-02-18T14:04:00;18.30;86.20
10062;DHT22;5070;52.382;5.270;2023-02-18T14:06:30;18.30;85.10
10062;DHT22;5070;52.382;5.270;2023-02-18T14:11:47;18.30;84.50
10062;DHT22;5070;52.382;5.270;2023-02-18T14:14:43;18.30;84.30
10062;DHT22;5070;52.382;5.270;2023-02-18T14:23:42;18.30;84.00
10062;DHT22;5070;52.382;5.270;2023-02-18T14:26:21;18.20;83.80
10062;DHT22;5070;52.382;5.270;2023-02-18T14:29:00;18.20;83.70
10062;DHT22;5070;52.382;5.270;2023-02-18T14:31:35;18.20;83.60
10062;DHT22;5070;52.382;5.270;2023-02-18T14:34:33;18.20;83.70
10062;DHT22;5070;52.382;5.270;2023-02-18T14:37:28;18.20;84.70
10062;DHT22;5070;52.382;5.270;2023-02-18T14:40:15;18.20;85.10
10062;DHT22;5070;52.382;5.270;2023-02-18T14:42:57;18.20;85.00
10062;DHT22;5070;52.382;5.270;2023-02-18T14:45:34;18.20;83.90
10062;DHT22;5070;52.382;5.270;2023-02-18T14:48:18;18.20;83.80
10062;DHT22;5070;52.382;5.270;2023-02-18T14:50:50;18.20;83.90
10062;DHT22;5070;52.382;5.270;2023-02-18T14:53:20;18.20;85.10
10062;DHT22;5070;52.382;5.270;2023-02-18T14:55:54;18.20;84.50
10062;DHT22;5070;52.382;5.270;2023-02-18T14:58:28;18.30;84.40
10062;DHT22;5070;52.382;5.270;2023-02-18T15:01:05;18.20;84.30
10062;DHT22;5070;52.382;5.270;2023-02-18T15:03:33;18.20;84.40
10062;DHT22;5070;52.382;5.270;2023-02-18T15:06:01;18.30;84.30
10062;DHT22;5070;52.382;5.270;2023-02-18T15:08:36;18.30;84.40
10062;DHT22;5070;52.382;5.270;2023-02-18T15:11:07;18.30;84.50
10062;DHT22;5070;52.382;5.270;2023-02-18T15:13:39;18.30;84.40
10062;DHT22;5070;52.382;5.270;2023-02-18T15:16:14;18.30;84.60
10062;DHT22;5070;52.382;5.270;2023-02-18T15:18:47;18.30;84.90
10062;DHT22;5070;52.382;5.270;2023-02-18T15:21:19;18.30;85.10
10062;DHT22;5070;52.382;5.270;2023-02-18T15:23:48;18.30;84.60
10062;DHT22;5070;52.382;5.270;2023-02-18T15:26:19;18.30;84.60
10062;DHT22;5070;52.382;5.270;2023-02-18T15:28:55;18.30;84.90
10062;DHT22;5070;52.382;5.270;2023-02-18T15:31:25;18.30;85.50
10062;DHT22;5070;52.382;5.270;2023-02-18T15:33:54;18.30;85.80
10062;DHT22;5070;52.382;5.270;2023-02-18T15:36:25;18.30;85.20
10062;DHT22;5070;52.382;5.270;2023-02-18T15:38:55;18.30;84.90
10062;DHT22;5070;52.382;5.270;2023-02-18T15:41:24;18.30;84.90
10062;DHT22;5070;52.382;5.270;2023-02-18T15:43:54;18.30;85.00
10062;DHT22;5070;52.382;5.270;2023-02-18T15:46:23;18.40;85.30
10062;DHT22;5070;52.382;5.270;2023-02-18T15:48:53;18.30;85.10
10062;DHT22;5070;52.382;5.270;2023-02-18T15:51:27;18.40;85.60
10062;DHT22;5070;52.382;5.270;2023-02-18T15:53:59;18.40;85.90
10062;DHT22;5070;52.382;5.270;2023-02-18T15:56:32;18.40;86.00
10062;DHT22;5070;52.382;5.270;2023-02-18T15:59:09;18.40;85.70
10062;DHT22;5070;52.382;5.270;2023-02-18T16:01:37;18.40;85.40
10062;DHT22;5070;52.382;5.270;2023-02-18T16:04:05;18.40;85.20
10062;DHT22;5070;52.382;5.270;2023-02-18T16:06:36;18.40;84.80
10062;DHT22;5070;52.382;5.270;2023-02-18T16:09:12;18.40;85.10
10062;DHT22;5070;52.382;5.270;2023-02-18T16:11:46;18.40;84.80
10062;DHT22;5070;52.382;5.270;2023-02-18T16:14:26;18.40;84.60
10062;DHT22;5070;52.382;5.270;2023-02-18T16:17:07;18.40;84.80
10062;DHT22;5070;52.382;5.270;2023-02-18T16:19:46;18.40;84.90
10062;DHT22;5070;52.382;5.270;2023-02-18T16:22:33;18.40;84.90
10062;DHT22;5070;52.382;5.270;2023-02-18T16:25:13;18.40;85.20
10062;DHT22;5070;52.382;5.270;2023-02-18T16:27:49;18.40;85.20
10062;DHT22;5070;52.382;5.270;2023-02-18T16:30:19;18.50;85.90
10062;DHT22;5070;52.382;5.270;2023-02-18T16:32:48;18.40;86.50
10062;DHT22;5070;52.382;5.270;2023-02-18T16:35:17;18.50;85.80
10062;DHT22;5070;52.382;5.270;2023-02-18T16:37:45;18.50;85.50
10062;DHT22;5070;52.382;5.270;2023-02-18T16:40:26;18.50;86.40
10062;DHT22;5070;52.382;5.270;2023-02-18T16:42:57;18.50;86.10
10062;DHT22;5070;52.382;5.270;2023-02-18T16:45:32;18.50;85.80
10062;DHT22;5070;52.382;5.270;2023-02-18T16:48:01;18.40;85.50
10062;DHT22;5070;52.382;5.270;2023-02-18T16:50:31;18.50;85.70
10062;DHT22;5070;52.382;5.270;2023-02-18T16:53:01;18.50;85.90
10062;DHT22;5070;52.382;5.270;2023-02-18T16:55:29;18.40;85.90